sensor_id;sensor_type;location;lat;lon;timestamp;P1;durP1;ratioP1;P2;durP2;ratioP2
75682;SDS011;64295;44.772;39.872;2023-07-09T00:01:56;4.53;;;2.30;;
75682;SDS011;64295;44.772;39.872;2023-07-09T00:04:22;3.42;;;1.90;;
75682;SDS011;64295;44.772;39.872;2023-07-09T00:06:50;3.25;;;2.33;;
75682;SDS011;64295;44.772;39.872;2023-07-09T00:09:17;5.18;;;2.40;;
75682;SDS011;64295;44.772;39.872;2023-07-09T00:11:49;5.43;;;2.40;;
75682;SDS011;64295;44.772;39.872;2023-07-09T00:14:23;3.28;;;2.38;;
75682;SDS011;64295;44.772;39.872;2023-07-09T00:16:49;8.77;;;2.58;;
75682;SDS011;64295;44.772;39.872;2023-07-09T00:19:18;3.38;;;1.92;;
75682;SDS011;64295;44.772;39.872;2023-07-09T00:21:49;3.83;;;2.25;;
75682;SDS011;64295;44.772;39.872;2023-07-09T00:24:18;3.22;;;1.65;;
75682;SDS011;64295;44.772;39.872;2023-07-09T00:26:44;4.65;;;1.85;;
75682;SDS011;64295;44.772;39.872;2023-07-09T00:29:15;2.92;;;2.17;;
75682;SDS011;64295;44.772;39.872;2023-07-09T00:31:41;5.47;;;2.83;;
75682;SDS011;64295;44.772;39.872;2023-07-09T00:34:08;3.80;;;1.77;;
75682;SDS011;64295;44.772;39.872;2023-07-09T00:36:37;6.78;;;2.08;;
75682;SDS011;64295;44.772;39.872;2023-07-09T00:39:04;5.05;;;2.75;;
75682;SDS011;64295;44.772;39.872;2023-07-09T00:41:34;5.50;;;2.08;;
75682;SDS011;64295;44.772;39.872;2023-07-09T00:44:35;5.72;;;2.13;;
75682;SDS011;64295;44.772;39.872;2023-07-09T00:49:31;4.25;;;2.55;;
75682;SDS011;64295;44.772;39.872;2023-07-09T00:52:21;3.80;;;1.67;;
75682;SDS011;64295;44.772;39.872;2023-07-09T00:55:09;1.83;;;1.60;;
75682;SDS011;64295;44.772;39.872;2023-07-09T00:57:40;3.67;;;1.58;;
75682;SDS011;64295;44.772;39.872;2023-07-09T01:00:10;3.72;;;2.38;;
75682;SDS011;64295;44.772;39.872;2023-07-09T01:02:39;3.92;;;2.10;;
75682;SDS011;64295;44.772;39.872;2023-07-09T01:05:15;2.35;;;1.67;;
75682;SDS011;64295;44.772;39.872;2023-07-09T01:07:45;1.70;;;1.35;;
75682;SDS011;64295;44.772;39.872;2023-07-09T01:12:41;6.88;;;1.80;;
75682;SDS011;64295;44.772;39.872;2023-07-09T01:15:11;5.60;;;2.13;;
75682;SDS011;64295;44.772;39.872;2023-07-09T01:17:43;10.85;;;2.42;;
75682;SDS011;64295;44.772;39.872;2023-07-09T01:20:18;2.97;;;1.85;;
75682;SDS011;64295;44.772;39.872;2023-07-09T01:22:54;3.90;;;2.03;;
75682;SDS011;64295;44.772;39.872;2023-07-09T01:25:49;2.25;;;1.63;;
75682;SDS011;64295;44.772;39.872;2023-07-09T01:28:24;2.42;;;1.98;;
75682;SDS011;64295;44.772;39.872;2023-07-09T01:30:51;1.77;;;1.08;;
75682;SDS011;64295;44.772;39.872;2023-07-09T01:33:25;2.20;;;1.50;;
75682;SDS011;64295;44.772;39.872;2023-07-09T01:36:24;4.57;;;1.67;;
75682;SDS011;64295;44.772;39.872;2023-07-09T01:38:51;3.83;;;2.28;;
75682;SDS011;64295;44.772;39.872;2023-07-09T01:43:46;2.65;;;1.90;;
75682;SDS011;64295;44.772;39.872;2023-07-09T01:46:29;3.80;;;2.10;;
75682;SDS011;64295;44.772;39.872;2023-07-09T01:48:57;3.33;;;1.92;;
75682;SDS011;64295;44.772;39.872;2023-07-09T01:51:36;4.45;;;1.63;;
75682;SDS011;64295;44.772;39.872;2023-07-09T01:54:06;6.07;;;2.47;;
75682;SDS011;64295;44.772;39.872;2023-07-09T01:56:43;3.10;;;2.20;;
75682;SDS011;64295;44.772;39.872;2023-07-09T01:59:57;3.40;;;1.55;;
75682;SDS011;64295;44.772;39.872;2023-07-09T02:02:39;4.85;;;2.80;;
75682;SDS011;64295;44.772;39.872;2023-07-09T02:05:19;1.58;;;1.40;;
75682;SDS011;64295;44.772;39.872;2023-07-09T02:08:14;2.92;;;1.75;;
75682;SDS011;64295;44.772;39.872;2023-07-09T02:10:43;5.35;;;2.72;;
75682;SDS011;64295;44.772;39.872;2023-07-09T02:13:18;2.50;;;2.15;;
75682;SDS011;64295;44.772;39.872;2023-07-09T02:15:45;4.78;;;2.28;;
75682;SDS011;64295;44.772;39.872;2023-07-09T02:18:22;3.75;;;2.08;;
75682;SDS011;64295;44.772;39.872;2023-07-09T02:21:03;7.40;;;2.28;;
75682;SDS011;64295;44.772;39.872;2023-07-09T02:23:34;2.85;;;1.85;;
75682;SDS011;64295;44.772;39.872;2023-07-09T02:26:02;6.13;;;2.08;;
75682;SDS011;64295;44.772;39.872;2023-07-09T02:28:28;5.65;;;1.33;;
75682;SDS011;64295;44.772;39.872;2023-07-09T02:30:54;3.53;;;1.83;;
75682;SDS011;64295;44.772;39.872;2023-07-09T02:33:34;4.30;;;2.03;;
75682;SDS011;64295;44.772;39.872;2023-07-09T02:36:11;2.33;;;1.33;;
75682;SDS011;64295;44.772;39.872;2023-07-09T02:38:45;11.15;;;1.58;;
75682;SDS011;64295;44.772;39.872;2023-07-09T02:41:19;2.80;;;1.60;;
75682;SDS011;64295;44.772;39.872;2023-07-09T02:43:48;3.88;;;2.42;;
75682;SDS011;64295;44.772;39.872;2023-07-09T02:46:20;11.65;;;2.80;;
75682;SDS011;64295;44.772;39.872;2023-07-09T02:49:13;2.05;;;1.52;;
75682;SDS011;64295;44.772;39.872;2023-07-09T02:51:52;2.65;;;2.03;;
75682;SDS011;64295;44.772;39.872;2023-07-09T02:54:26;3.92;;;1.60;;
75682;SDS011;64295;44.772;39.872;2023-07-09T02:56:57;2.33;;;1.73;;
75682;SDS011;64295;44.772;39.872;2023-07-09T02:59:25;9.55;;;2.22;;
75682;SDS011;64295;44.772;39.872;2023-07-09T03:02:03;2.60;;;1.90;;
75682;SDS011;64295;44.772;39.872;2023-07-09T03:04:55;8.10;;;4.07;;
75682;SDS011;64295;44.772;39.872;2023-07-09T03:07:23;5.03;;;3.03;;
75682;SDS011;64295;44.772;39.872;2023-07-09T03:09:50;3.10;;;2.15;;
75682;SDS011;64295;44.772;39.872;2023-07-09T03:12:19;2.70;;;2.03;;
75682;SDS011;64295;44.772;39.872;2023-07-09T03:14:47;2.58;;;1.77;;
75682;SDS011;64295;44.772;39.872;2023-07-09T03:17:19;3.35;;;1.83;;
75682;SDS011;64295;44.772;39.872;2023-07-09T03:19:54;3.42;;;2.00;;
75682;SDS011;64295;44.772;39.872;2023-07-09T03:22:26;3.08;;;1.75;;
75682;SDS011;64295;44.772;39.872;2023-07-09T03:24:54;2.22;;;1.63;;
75682;SDS011;64295;44.772;39.872;2023-07-09T03:27:24;3.58;;;2.40;;
75682;SDS011;64295;44.772;39.872;2023-07-09T03:29:53;7.00;;;2.08;;
75682;SDS011;64295;44.772;39.872;2023-07-09T03:32:25;9.02;;;2.40;;
75682;SDS011;64295;44.772;39.872;2023-07-09T03:35:04;5.22;;;2.75;;
75682;SDS011;64295;44.772;39.872;2023-07-09T03:37:44;3.80;;;2.45;;
75682;SDS011;64295;44.772;39.872;2023-07-09T03:42:49;10.48;;;3.08;;
75682;SDS011;64295;44.772;39.872;2023-07-09T03:45:21;4.90;;;2.30;;
75682;SDS011;64295;44.772;39.872;2023-07-09T03:47:55;5.75;;;2.45;;
75682;SDS011;64295;44.772;39.872;2023-07-09T03:50:21;5.43;;;3.08;;
75682;SDS011;64295;44.772;39.872;2023-07-09T03:52:53;6.88;;;3.70;;
75682;SDS011;64295;44.772;39.872;2023-07-09T03:55:32;4.75;;;2.47;;
75682;SDS011;64295;44.772;39.872;2023-07-09T03:58:05;2.88;;;1.85;;
75682;SDS011;64295;44.772;39.872;2023-07-09T04:00:32;5.60;;;2.65;;
75682;SDS011;64295;44.772;39.872;2023-07-09T04:03:02;4.40;;;2.40;;
75682;SDS011;64295;44.772;39.872;2023-07-09T04:05:29;3.45;;;2.05;;
75682;SDS011;64295;44.772;39.872;2023-07-09T04:08:04;4.18;;;2.75;;
75682;SDS011;64295;44.772;39.872;2023-07-09T04:13:43;4.15;;;2.55;;
75682;SDS011;64295;44.772;39.872;2023-07-09T04:16:13;5.20;;;2.45;;
75682;SDS011;64295;44.772;39.872;2023-07-09T04:18:44;3.15;;;1.75;;
75682;SDS011;64295;44.772;39.872;2023-07-09T04:21:16;4.75;;;2.47;;
75682;SDS011;64295;44.772;39.872;2023-07-09T04:23:49;8.07;;;2.78;;
75682;SDS011;64295;44.772;39.872;2023-07-09T04:26:31;5.07;;;2.30;;
75682;SDS011;64295;44.772;39.872;2023-07-09T04:29:00;4.55;;;2.30;;
75682;SDS011;64295;44.772;39.872;2023-07-09T04:31:33;5.35;;;2.53;;
75682;SDS011;64295;44.772;39.872;2023-07-09T04:34:25;6.25;;;2.30;;
75682;SDS011;64295;44.772;39.872;2023-07-09T04:40:41;3.72;;;2.90;;
75682;SDS011;64295;44.772;39.872;2023-07-09T04:43:13;2.70;;;1.98;;
75682;SDS011;64295;44.772;39.872;2023-07-09T04:45:39;7.45;;;2.83;;
75682;SDS011;64295;44.772;39.872;2023-07-09T04:48:09;3.65;;;1.85;;
75682;SDS011;64295;44.772;39.872;2023-07-09T04:50:35;5.30;;;2.15;;
75682;SDS011;64295;44.772;39.872;2023-07-09T04:53:28;7.75;;;2.80;;
75682;SDS011;64295;44.772;39.872;2023-07-09T04:56:03;5.50;;;2.72;;
75682;SDS011;64295;44.772;39.872;2023-07-09T04:58:37;6.22;;;2.40;;
75682;SDS011;64295;44.772;39.872;2023-07-09T05:01:06;3.22;;;2.92;;
75682;SDS011;64295;44.772;39.872;2023-07-09T05:03:38;5.40;;;2.92;;
75682;SDS011;64295;44.772;39.872;2023-07-09T05:06:04;3.85;;;2.45;;
75682;SDS011;64295;44.772;39.872;2023-07-09T05:08:30;9.95;;;3.38;;
75682;SDS011;64295;44.772;39.872;2023-07-09T05:10:57;6.78;;;3.08;;
75682;SDS011;64295;44.772;39.872;2023-07-09T05:13:23;4.30;;;2.80;;
75682;SDS011;64295;44.772;39.872;2023-07-09T05:15:54;6.25;;;2.25;;
75682;SDS011;64295;44.772;39.872;2023-07-09T05:18:20;3.85;;;2.28;;
75682;SDS011;64295;44.772;39.872;2023-07-09T05:20:48;3.28;;;2.08;;
75682;SDS011;64295;44.772;39.872;2023-07-09T05:23:26;3.97;;;1.70;;
75682;SDS011;64295;44.772;39.872;2023-07-09T05:25:59;4.13;;;2.33;;
75682;SDS011;64295;44.772;39.872;2023-07-09T05:28:27;7.43;;;2.25;;
75682;SDS011;64295;44.772;39.872;2023-07-09T05:30:54;4.47;;;3.00;;
75682;SDS011;64295;44.772;39.872;2023-07-09T05:33:20;5.80;;;2.67;;
75682;SDS011;64295;44.772;39.872;2023-07-09T05:35:46;3.35;;;2.28;;
75682;SDS011;64295;44.772;39.872;2023-07-09T05:38:14;6.55;;;2.80;;
75682;SDS011;64295;44.772;39.872;2023-07-09T05:40:41;3.90;;;2.13;;
75682;SDS011;64295;44.772;39.872;2023-07-09T05:43:07;4.07;;;2.50;;
75682;SDS011;64295;44.772;39.872;2023-07-09T05:45:34;4.53;;;2.17;;
75682;SDS011;64295;44.772;39.872;2023-07-09T05:48:00;4.80;;;2.53;;
75682;SDS011;64295;44.772;39.872;2023-07-09T05:50:27;3.60;;;2.28;;
75682;SDS011;64295;44.772;39.872;2023-07-09T05:52:54;3.63;;;2.33;;
75682;SDS011;64295;44.772;39.872;2023-07-09T05:55:20;5.03;;;2.42;;
75682;SDS011;64295;44.772;39.872;2023-07-09T05:57:53;5.05;;;2.00;;
75682;SDS011;64295;44.772;39.872;2023-07-09T06:00:22;3.33;;;2.13;;
75682;SDS011;64295;44.772;39.872;2023-07-09T06:02:51;6.47;;;2.50;;
75682;SDS011;64295;44.772;39.872;2023-07-09T06:05:17;4.22;;;2.13;;
75682;SDS011;64295;44.772;39.872;2023-07-09T06:07:44;3.45;;;1.92;;
75682;SDS011;64295;44.772;39.872;2023-07-09T06:10:10;2.35;;;1.40;;
75682;SDS011;64295;44.772;39.872;2023-07-09T06:12:36;2.92;;;1.95;;
75682;SDS011;64295;44.772;39.872;2023-07-09T06:15:02;3.47;;;1.83;;
75682;SDS011;64295;44.772;39.872;2023-07-09T06:17:29;2.53;;;1.60;;
75682;SDS011;64295;44.772;39.872;2023-07-09T06:19:54;5.35;;;2.33;;
75682;SDS011;64295;44.772;39.872;2023-07-09T06:22:20;2.35;;;1.67;;
75682;SDS011;64295;44.772;39.872;2023-07-09T06:24:46;1.80;;;1.58;;
75682;SDS011;64295;44.772;39.872;2023-07-09T06:27:12;6.28;;;1.90;;
75682;SDS011;64295;44.772;39.872;2023-07-09T06:29:38;4.45;;;2.20;;
75682;SDS011;64295;44.772;39.872;2023-07-09T06:32:04;2.90;;;2.25;;
75682;SDS011;64295;44.772;39.872;2023-07-09T06:34:30;3.95;;;2.25;;
75682;SDS011;64295;44.772;39.872;2023-07-09T06:36:56;5.03;;;2.83;;
75682;SDS011;64295;44.772;39.872;2023-07-09T06:39:22;5.32;;;3.45;;
75682;SDS011;64295;44.772;39.872;2023-07-09T06:41:49;3.80;;;2.78;;
75682;SDS011;64295;44.772;39.872;2023-07-09T06:44:45;6.28;;;2.85;;
75682;SDS011;64295;44.772;39.872;2023-07-09T06:47:11;4.07;;;3.20;;
75682;SDS011;64295;44.772;39.872;2023-07-09T06:49:37;5.13;;;2.65;;
75682;SDS011;64295;44.772;39.872;2023-07-09T06:52:04;5.35;;;3.22;;
75682;SDS011;64295;44.772;39.872;2023-07-09T06:54:34;3.38;;;2.25;;
75682;SDS011;64295;44.772;39.872;2023-07-09T06:57:00;4.75;;;2.47;;
75682;SDS011;64295;44.772;39.872;2023-07-09T06:59:27;4.10;;;2.30;;
75682;SDS011;64295;44.772;39.872;2023-07-09T07:02:04;2.42;;;1.77;;
75682;SDS011;64295;44.772;39.872;2023-07-09T07:04:39;3.50;;;2.80;;
75682;SDS011;64295;44.772;39.872;2023-07-09T07:07:07;3.42;;;2.03;;
75682;SDS011;64295;44.772;39.872;2023-07-09T07:09:32;3.38;;;2.17;;
75682;SDS011;64295;44.772;39.872;2023-07-09T07:11:58;5.00;;;2.65;;
75682;SDS011;64295;44.772;39.872;2023-07-09T07:14:24;3.17;;;2.03;;
75682;SDS011;64295;44.772;39.872;2023-07-09T07:16:50;5.65;;;3.03;;
75682;SDS011;64295;44.772;39.872;2023-07-09T07:19:16;10.35;;;3.13;;
75682;SDS011;64295;44.772;39.872;2023-07-09T07:21:41;4.13;;;2.67;;
75682;SDS011;64295;44.772;39.872;2023-07-09T07:24:07;4.75;;;3.80;;
75682;SDS011;64295;44.772;39.872;2023-07-09T07:26:33;12.02;;;3.92;;
75682;SDS011;64295;44.772;39.872;2023-07-09T07:28:59;6.60;;;3.90;;
75682;SDS011;64295;44.772;39.872;2023-07-09T07:31:25;9.73;;;5.28;;
75682;SDS011;64295;44.772;39.872;2023-07-09T07:33:51;5.18;;;3.08;;
75682;SDS011;64295;44.772;39.872;2023-07-09T07:36:17;9.88;;;5.10;;
75682;SDS011;64295;44.772;39.872;2023-07-09T07:38:42;6.68;;;3.28;;
75682;SDS011;64295;44.772;39.872;2023-07-09T07:41:08;7.55;;;3.63;;
75682;SDS011;64295;44.772;39.872;2023-07-09T07:43:35;8.27;;;3.83;;
75682;SDS011;64295;44.772;39.872;2023-07-09T07:46:04;10.35;;;4.47;;
75682;SDS011;64295;44.772;39.872;2023-07-09T07:48:32;5.97;;;3.60;;
75682;SDS011;64295;44.772;39.872;2023-07-09T07:50:58;7.47;;;3.25;;
75682;SDS011;64295;44.772;39.872;2023-07-09T07:56:04;7.30;;;2.95;;
75682;SDS011;64295;44.772;39.872;2023-07-09T07:58:33;4.57;;;3.13;;
75682;SDS011;64295;44.772;39.872;2023-07-09T08:01:03;4.88;;;2.90;;
75682;SDS011;64295;44.772;39.872;2023-07-09T08:06:27;7.22;;;4.00;;
75682;SDS011;64295;44.772;39.872;2023-07-09T08:08:53;6.28;;;4.00;;
75682;SDS011;64295;44.772;39.872;2023-07-09T08:11:32;9.05;;;3.63;;
75682;SDS011;64295;44.772;39.872;2023-07-09T08:14:09;6.82;;;3.60;;
75682;SDS011;64295;44.772;39.872;2023-07-09T08:16:50;6.95;;;4.78;;
75682;SDS011;64295;44.772;39.872;2023-07-09T08:22:47;8.35;;;4.63;;
75682;SDS011;64295;44.772;39.872;2023-07-09T08:25:19;5.70;;;3.65;;
75682;SDS011;64295;44.772;39.872;2023-07-09T08:27:44;5.05;;;2.80;;
75682;SDS011;64295;44.772;39.872;2023-07-09T08:30:11;4.78;;;2.60;;
75682;SDS011;64295;44.772;39.872;2023-07-09T08:32:37;3.88;;;2.70;;
75682;SDS011;64295;44.772;39.872;2023-07-09T08:35:03;4.95;;;3.33;;
75682;SDS011;64295;44.772;39.872;2023-07-09T08:41:02;6.60;;;3.45;;
75682;SDS011;64295;44.772;39.872;2023-07-09T08:47:06;4.88;;;3.72;;
75682;SDS011;64295;44.772;39.872;2023-07-09T08:55:23;6.80;;;4.38;;
75682;SDS011;64295;44.772;39.872;2023-07-09T08:57:54;8.43;;;4.97;;
75682;SDS011;64295;44.772;39.872;2023-07-09T09:00:28;10.48;;;6.43;;
75682;SDS011;64295;44.772;39.872;2023-07-09T09:03:05;11.38;;;6.40;;
75682;SDS011;64295;44.772;39.872;2023-07-09T09:05:38;13.50;;;8.45;;
75682;SDS011;64295;44.772;39.872;2023-07-09T09:10:48;12.75;;;6.90;;
75682;SDS011;64295;44.772;39.872;2023-07-09T09:13:23;14.15;;;6.43;;
75682;SDS011;64295;44.772;39.872;2023-07-09T09:15:51;11.75;;;6.95;;
75682;SDS011;64295;44.772;39.872;2023-07-09T09:18:26;9.25;;;5.63;;
75682;SDS011;64295;44.772;39.872;2023-07-09T09:23:42;12.57;;;6.35;;
75682;SDS011;64295;44.772;39.872;2023-07-09T09:26:31;8.02;;;5.22;;
75682;SDS011;64295;44.772;39.872;2023-07-09T09:28:59;8.57;;;4.28;;
75682;SDS011;64295;44.772;39.872;2023-07-09T09:31:28;7.20;;;5.53;;
75682;SDS011;64295;44.772;39.872;2023-07-09T09:33:55;8.38;;;4.15;;
75682;SDS011;64295;44.772;39.872;2023-07-09T09:38:48;7.03;;;3.25;;
75682;SDS011;64295;44.772;39.872;2023-07-09T09:41:25;6.95;;;4.60;;
75682;SDS011;64295;44.772;39.872;2023-07-09T09:43:55;7.35;;;4.28;;
75682;SDS011;64295;44.772;39.872;2023-07-09T09:46:24;9.85;;;4.93;;
75682;SDS011;64295;44.772;39.872;2023-07-09T09:48:55;7.70;;;3.65;;
75682;SDS011;64295;44.772;39.872;2023-07-09T09:51:24;9.85;;;5.05;;
75682;SDS011;64295;44.772;39.872;2023-07-09T09:53:52;17.08;;;9.00;;
75682;SDS011;64295;44.772;39.872;2023-07-09T09:56:29;11.57;;;6.05;;
75682;SDS011;64295;44.772;39.872;2023-07-09T09:58:57;9.20;;;5.63;;
75682;SDS011;64295;44.772;39.872;2023-07-09T10:01:28;7.68;;;5.45;;
75682;SDS011;64295;44.772;39.872;2023-07-09T10:03:56;7.50;;;5.10;;
75682;SDS011;64295;44.772;39.872;2023-07-09T10:11:59;6.95;;;4.00;;
75682;SDS011;64295;44.772;39.872;2023-07-09T10:14:49;6.70;;;4.38;;
75682;SDS011;64295;44.772;39.872;2023-07-09T10:19:57;5.57;;;3.42;;
75682;SDS011;64295;44.772;39.872;2023-07-09T10:25:20;5.60;;;3.80;;
75682;SDS011;64295;44.772;39.872;2023-07-09T10:28:20;5.43;;;3.17;;
75682;SDS011;64295;44.772;39.872;2023-07-09T10:39:34;6.68;;;3.78;;
75682;SDS011;64295;44.772;39.872;2023-07-09T10:42:03;5.53;;;3.55;;
75682;SDS011;64295;44.772;39.872;2023-07-09T10:44:36;3.50;;;2.75;;
75682;SDS011;64295;44.772;39.872;2023-07-09T10:47:26;3.90;;;2.75;;
75682;SDS011;64295;44.772;39.872;2023-07-09T10:50:02;6.57;;;3.60;;
75682;SDS011;64295;44.772;39.872;2023-07-09T10:52:39;5.95;;;2.83;;
75682;SDS011;64295;44.772;39.872;2023-07-09T10:58:00;9.52;;;3.92;;
75682;SDS011;64295;44.772;39.872;2023-07-09T11:00:36;4.60;;;3.50;;
75682;SDS011;64295;44.772;39.872;2023-07-09T11:03:05;7.40;;;3.83;;
75682;SDS011;64295;44.772;39.872;2023-07-09T11:06:31;5.75;;;3.13;;
75682;SDS011;64295;44.772;39.872;2023-07-09T11:09:01;5.35;;;3.42;;
75682;SDS011;64295;44.772;39.872;2023-07-09T11:11:40;5.88;;;3.25;;
75682;SDS011;64295;44.772;39.872;2023-07-09T11:14:15;5.10;;;2.97;;
75682;SDS011;64295;44.772;39.872;2023-07-09T11:16:53;5.20;;;2.95;;
75682;SDS011;64295;44.772;39.872;2023-07-09T11:19:22;7.47;;;2.88;;
75682;SDS011;64295;44.772;39.872;2023-07-09T11:22:03;3.20;;;2.83;;
75682;SDS011;64295;44.772;39.872;2023-07-09T11:24:50;6.43;;;3.17;;
75682;SDS011;64295;44.772;39.872;2023-07-09T11:27:19;8.50;;;3.10;;
75682;SDS011;64295;44.772;39.872;2023-07-09T11:29:48;12.15;;;2.50;;
75682;SDS011;64295;44.772;39.872;2023-07-09T11:32:22;5.05;;;2.95;;
75682;SDS011;64295;44.772;39.872;2023-07-09T11:34:48;4.97;;;2.97;;
75682;SDS011;64295;44.772;39.872;2023-07-09T11:37:15;5.30;;;2.67;;
75682;SDS011;64295;44.772;39.872;2023-07-09T11:39:43;4.35;;;3.13;;
75682;SDS011;64295;44.772;39.872;2023-07-09T11:42:31;4.90;;;3.47;;
75682;SDS011;64295;44.772;39.872;2023-07-09T11:45:05;3.67;;;2.15;;
75682;SDS011;64295;44.772;39.872;2023-07-09T11:48:00;3.10;;;2.42;;
75682;SDS011;64295;44.772;39.872;2023-07-09T11:50:41;4.07;;;2.70;;
75682;SDS011;64295;44.772;39.872;2023-07-09T11:56:04;4.75;;;2.90;;
75682;SDS011;64295;44.772;39.872;2023-07-09T11:58:33;7.10;;;3.10;;
75682;SDS011;64295;44.772;39.872;2023-07-09T12:01:01;5.97;;;2.88;;
75682;SDS011;64295;44.772;39.872;2023-07-09T12:05:59;7.22;;;4.38;;
75682;SDS011;64295;44.772;39.872;2023-07-09T12:08:38;6.13;;;3.45;;
75682;SDS011;64295;44.772;39.872;2023-07-09T12:11:06;5.80;;;3.47;;
75682;SDS011;64295;44.772;39.872;2023-07-09T12:13:43;2.67;;;1.60;;
75682;SDS011;64295;44.772;39.872;2023-07-09T12:18:50;2.80;;;1.90;;
75682;SDS011;64295;44.772;39.872;2023-07-09T12:21:17;1.63;;;1.35;;
75682;SDS011;64295;44.772;39.872;2023-07-09T12:23:48;2.38;;;1.75;;
75682;SDS011;64295;44.772;39.872;2023-07-09T12:26:15;0.98;;;0.80;;
75682;SDS011;64295;44.772;39.872;2023-07-09T12:28:49;1.15;;;0.93;;
75682;SDS011;64295;44.772;39.872;2023-07-09T12:31:26;1.80;;;0.90;;
75682;SDS011;64295;44.772;39.872;2023-07-09T12:33:55;1.98;;;1.30;;
75682;SDS011;64295;44.772;39.872;2023-07-09T12:36:23;1.80;;;1.50;;
75682;SDS011;64295;44.772;39.872;2023-07-09T12:38:50;1.50;;;1.08;;
75682;SDS011;64295;44.772;39.872;2023-07-09T12:41:40;1.40;;;1.23;;
75682;SDS011;64295;44.772;39.872;2023-07-09T12:44:14;1.98;;;1.40;;
75682;SDS011;64295;44.772;39.872;2023-07-09T12:46:45;1.77;;;1.15;;
75682;SDS011;64295;44.772;39.872;2023-07-09T12:49:19;1.20;;;0.90;;
75682;SDS011;64295;44.772;39.872;2023-07-09T12:51:47;1.45;;;1.02;;
75682;SDS011;64295;44.772;39.872;2023-07-09T12:54:14;2.17;;;0.98;;
75682;SDS011;64295;44.772;39.872;2023-07-09T12:56:42;1.00;;;0.60;;
75682;SDS011;64295;44.772;39.872;2023-07-09T12:59:19;1.80;;;0.55;;
75682;SDS011;64295;44.772;39.872;2023-07-09T13:02:37;1.23;;;1.00;;
75682;SDS011;64295;44.772;39.872;2023-07-09T13:04:47;1.63;;;1.05;;
75682;SDS011;64295;44.772;39.872;2023-07-09T13:07:33;2.20;;;0.85;;
75682;SDS011;64295;44.772;39.872;2023-07-09T13:10:11;1.23;;;0.73;;
75682;SDS011;64295;44.772;39.872;2023-07-09T13:12:45;1.50;;;1.08;;
75682;SDS011;64295;44.772;39.872;2023-07-09T13:15:30;2.38;;;1.20;;
75682;SDS011;64295;44.772;39.872;2023-07-09T13:18:11;3.92;;;1.08;;
75682;SDS011;64295;44.772;39.872;2023-07-09T13:20:40;4.72;;;1.02;;
75682;SDS011;64295;44.772;39.872;2023-07-09T13:23:20;4.28;;;1.73;;
75682;SDS011;64295;44.772;39.872;2023-07-09T13:25:51;1.33;;;1.00;;
75682;SDS011;64295;44.772;39.872;2023-07-09T13:28:23;2.22;;;1.45;;
75682;SDS011;64295;44.772;39.872;2023-07-09T13:30:54;1.88;;;1.20;;
75682;SDS011;64295;44.772;39.872;2023-07-09T13:33:26;1.92;;;1.10;;
75682;SDS011;64295;44.772;39.872;2023-07-09T13:35:52;2.65;;;1.33;;
75682;SDS011;64295;44.772;39.872;2023-07-09T13:38:20;2.70;;;1.30;;
75682;SDS011;64295;44.772;39.872;2023-07-09T13:40:48;1.70;;;1.23;;
75682;SDS011;64295;44.772;39.872;2023-07-09T13:45:59;3.90;;;1.65;;
75682;SDS011;64295;44.772;39.872;2023-07-09T13:48:28;1.67;;;1.10;;
75682;SDS011;64295;44.772;39.872;2023-07-09T13:50:56;2.90;;;1.67;;
75682;SDS011;64295;44.772;39.872;2023-07-09T13:53:23;3.38;;;1.67;;
75682;SDS011;64295;44.772;39.872;2023-07-09T13:55:51;3.42;;;2.00;;
75682;SDS011;64295;44.772;39.872;2023-07-09T13:58:18;2.60;;;1.42;;
75682;SDS011;64295;44.772;39.872;2023-07-09T14:00:46;3.10;;;1.60;;
75682;SDS011;64295;44.772;39.872;2023-07-09T14:03:24;2.95;;;1.90;;
75682;SDS011;64295;44.772;39.872;2023-07-09T14:05:51;2.63;;;1.60;;
75682;SDS011;64295;44.772;39.872;2023-07-09T14:08:18;1.98;;;1.27;;
75682;SDS011;64295;44.772;39.872;2023-07-09T14:10:47;1.92;;;1.30;;
75682;SDS011;64295;44.772;39.872;2023-07-09T14:13:17;1.52;;;1.08;;
75682;SDS011;64295;44.772;39.872;2023-07-09T14:15:45;5.47;;;1.17;;
75682;SDS011;64295;44.772;39.872;2023-07-09T14:18:11;3.08;;;1.08;;
75682;SDS011;64295;44.772;39.872;2023-07-09T14:20:42;2.35;;;1.10;;
75682;SDS011;64295;44.772;39.872;2023-07-09T14:23:12;1.48;;;0.77;;
75682;SDS011;64295;44.772;39.872;2023-07-09T14:25:41;1.30;;;0.90;;
75682;SDS011;64295;44.772;39.872;2023-07-09T14:28:12;1.63;;;0.88;;
75682;SDS011;64295;44.772;39.872;2023-07-09T14:30:40;3.45;;;1.45;;
75682;SDS011;64295;44.772;39.872;2023-07-09T14:33:11;2.28;;;1.10;;
75682;SDS011;64295;44.772;39.872;2023-07-09T14:35:39;1.50;;;0.60;;
75682;SDS011;64295;44.772;39.872;2023-07-09T14:38:08;1.65;;;0.80;;
75682;SDS011;64295;44.772;39.872;2023-07-09T14:40:39;1.40;;;0.70;;
75682;SDS011;64295;44.772;39.872;2023-07-09T14:43:07;2.00;;;0.70;;
75682;SDS011;64295;44.772;39.872;2023-07-09T14:45:35;0.50;;;0.47;;
75682;SDS011;64295;44.772;39.872;2023-07-09T14:48:04;1.88;;;0.77;;
75682;SDS011;64295;44.772;39.872;2023-07-09T14:50:39;1.90;;;1.13;;
75682;SDS011;64295;44.772;39.872;2023-07-09T14:53:20;1.13;;;0.77;;
75682;SDS011;64295;44.772;39.872;2023-07-09T14:55:53;3.55;;;1.35;;
75682;SDS011;64295;44.772;39.872;2023-07-09T14:58:20;3.53;;;1.30;;
75682;SDS011;64295;44.772;39.872;2023-07-09T15:00:49;1.58;;;0.80;;
75682;SDS011;64295;44.772;39.872;2023-07-09T15:03:19;1.90;;;0.98;;
75682;SDS011;64295;44.772;39.872;2023-07-09T15:05:49;2.28;;;0.85;;
75682;SDS011;64295;44.772;39.872;2023-07-09T15:08:19;1.45;;;0.85;;
75682;SDS011;64295;44.772;39.872;2023-07-09T15:10:51;2.83;;;1.40;;
75682;SDS011;64295;44.772;39.872;2023-07-09T15:13:25;1.45;;;0.73;;
75682;SDS011;64295;44.772;39.872;2023-07-09T15:15:56;1.50;;;1.10;;
75682;SDS011;64295;44.772;39.872;2023-07-09T15:18:25;3.15;;;0.93;;
75682;SDS011;64295;44.772;39.872;2023-07-09T15:20:58;1.88;;;0.95;;
75682;SDS011;64295;44.772;39.872;2023-07-09T15:23:28;1.60;;;1.33;;
75682;SDS011;64295;44.772;39.872;2023-07-09T15:25:55;2.45;;;0.95;;
75682;SDS011;64295;44.772;39.872;2023-07-09T15:28:21;3.15;;;1.20;;
75682;SDS011;64295;44.772;39.872;2023-07-09T15:30:50;1.65;;;0.80;;
75682;SDS011;64295;44.772;39.872;2023-07-09T15:33:18;1.30;;;0.80;;
75682;SDS011;64295;44.772;39.872;2023-07-09T15:35:45;1.77;;;1.25;;
75682;SDS011;64295;44.772;39.872;2023-07-09T15:40:56;2.40;;;0.70;;
75682;SDS011;64295;44.772;39.872;2023-07-09T15:43:22;2.28;;;0.88;;
75682;SDS011;64295;44.772;39.872;2023-07-09T15:45:50;1.77;;;0.68;;
75682;SDS011;64295;44.772;39.872;2023-07-09T15:48:21;3.65;;;0.98;;
75682;SDS011;64295;44.772;39.872;2023-07-09T15:50:48;0.98;;;0.55;;
75682;SDS011;64295;44.772;39.872;2023-07-09T15:53:14;2.53;;;1.52;;
75682;SDS011;64295;44.772;39.872;2023-07-09T15:55:40;9.55;;;1.10;;
75682;SDS011;64295;44.772;39.872;2023-07-09T15:58:07;2.10;;;0.80;;
75682;SDS011;64295;44.772;39.872;2023-07-09T16:00:41;0.85;;;0.40;;
75682;SDS011;64295;44.772;39.872;2023-07-09T16:03:10;0.93;;;0.47;;
75682;SDS011;64295;44.772;39.872;2023-07-09T16:05:35;3.80;;;0.63;;
75682;SDS011;64295;44.772;39.872;2023-07-09T16:08:03;2.63;;;0.85;;
75682;SDS011;64295;44.772;39.872;2023-07-09T16:10:30;2.78;;;0.68;;
75682;SDS011;64295;44.772;39.872;2023-07-09T16:12:57;0.38;;;0.28;;
75682;SDS011;64295;44.772;39.872;2023-07-09T16:15:23;0.60;;;0.30;;
75682;SDS011;64295;44.772;39.872;2023-07-09T16:17:50;2.88;;;0.82;;
75682;SDS011;64295;44.772;39.872;2023-07-09T16:20:27;2.08;;;1.05;;
75682;SDS011;64295;44.772;39.872;2023-07-09T16:22:54;4.18;;;1.20;;